Time;durP1;ratioP1;P1;durP2;ratioP2;P2;SDS_P1;SDS_P2;PMS_P1;PMS_P2;Temp;Humidity;BMP_temperature;BMP_pressure;BME280_temperature;BME280_humidity;BME280_pressure;Samples;Min_cycle;Max_cycle;Signal;HPM_P1;HPM_P2
2022/03/31 00:00:04;;;;;;;;;;;11.40;99.90;11.70;97809.00;;;;347418;28;86107;-92
2022/03/31 00:00:16;;;;;;;;;;;11.40;99.90;11.70;97808.00;;;;346198;28;83414;-92
2022/03/31 00:00:29;;;;;;;;;;;11.40;99.90;11.70;97806.00;;;;345430;28;87409;-92
2022/03/31 00:00:42;;;;;;;;;;;11.40;99.90;11.70;97802.00;;;;347408;28;83497;-92
2022/03/31 00:00:54;;;;;;;;;;;11.40;99.90;11.60;97803.00;;;;346097;28;85698;-92
2022/03/31 00:01:06;;;;;;;;;;;11.40;99.90;11.70;97805.00;;;;346088;28;83261;-92
2022/03/31 00:01:18;;;;;;;;;;;11.40;99.90;11.70;97804.00;;;;347352;28;86576;-92
2022/03/31 00:01:30;;;;;;;;;;;11.40;99.90;11.70;97805.00;;;;349045;27;83360;-92
2022/03/31 00:01:42;;;;;;;;;;;11.40;99.90;11.70;97799.00;;;;344654;28;86058;-91
2022/03/31 00:01:54;;;;;;;;;;;11.40;99.90;11.60;97803.00;;;;347249;28;83526;-92
2022/03/31 00:02:07;;;;;;;;;;;11.40;99.90;11.60;97806.00;;;;348763;27;86649;-92
2022/03/31 00:02:19;;;;;;;;;;;11.40;99.90;11.60;97803.00;;;;346249;28;82471;-92
2022/03/31 00:02:31;;;;;;;;;;;11.40;99.90;11.60;97800.00;;;;347373;27;87056;-92
2022/03/31 00:02:44;;;;;;;;;;;11.40;99.90;11.70;97813.00;;;;347498;28;83489;-91
2022/03/31 00:02:56;;;;;;;;;;;11.40;99.90;11.60;97804.00;;;;350238;27;86886;-91
2022/03/31 00:03:16;;;;;;;;;;;11.40;99.90;11.70;97808.00;;;;346068;28;83299;-92
2022/03/31 00:03:27;;;;;;;;;;;11.40;99.90;11.60;97807.00;;;;345567;28;87709;-91
2022/03/31 00:03:39;;;;;;;;;;;11.40;99.90;11.60;97800.00;;;;346097;28;83483;-91
2022/03/31 00:03:51;;;;;;;;;;;11.40;99.90;11.60;97803.00;;;;347232;28;87904;-91
2022/03/31 00:04:03;;;;;;;;;;;11.40;99.90;11.60;97798.00;;;;347560;28;83377;-91
2022/03/31 00:04:15;;;;;;;;;;;11.40;99.90;11.60;97801.00;;;;348877;27;86255;-91
2022/03/31 00:04:27;;;;;;;;;;;11.40;99.90;11.70;97798.00;;;;347515;28;82571;-91
2022/03/31 00:04:39;;;;;;;;;;;11.40;99.90;11.70;97793.00;;;;348753;27;87367;-92
2022/03/31 00:04:51;;;;;;;;;;;11.40;99.90;11.70;97800.00;;;;348999;27;83386;-91
2022/03/31 00:05:03;;;;;;;;;;;11.40;99.90;11.70;97796.00;;;;347466;28;87814;-91
2022/03/31 00:05:15;;;;;;;;;;;11.40;99.90;11.70;97797.00;;;;345708;28;82565;-92
2022/03/31 00:05:27;;;;;;;;;;;11.40;99.90;11.70;97800.00;;;;346063;28;87140;-92
2022/03/31 00:05:38;;;;;;;;;;;11.40;99.90;11.80;97801.00;;;;347591;28;83267;-92
2022/03/31 00:05:50;;;;;;;;;;;11.40;99.90;11.90;97805.00;;;;347311;27;87221;-92
2022/03/31 00:06:02;;;;;;;;;;;11.40;99.90;11.90;97805.00;;;;347652;28;82544;-91
2022/03/31 00:06:14;;;;;;;;;;;11.40;99.90;11.80;97803.00;;;;347482;28;86352;-92
2022/03/31 00:06:26;;;;;;;;;;;11.40;99.90;11.80;97802.00;;;;344289;28;83367;-92
2022/03/31 00:06:38;;;;;;;;;;;11.40;99.90;11.80;97794.00;;;;345929;28;86313;-92
2022/03/31 00:06:50;;;;;;;;;;;11.40;99.90;11.90;97799.00;;;;347268;28;83512;-92
2022/03/31 00:07:02;;;;;;;;;;;11.40;99.90;11.90;97810.00;;;;347464;28;87669;-91
2022/03/31 00:07:13;;;;;;;;;;;11.40;99.90;11.80;97803.00;;;;348874;27;83344;-91
2022/03/31 00:07:25;;;;;;;;;;;11.40;99.90;11.80;97796.00;;;;346429;28;86185;-91
2022/03/31 00:07:53;;;;;;;;;;;11.40;99.90;11.80;97799.00;;;;344810;28;82544;-92
2022/03/31 00:08:06;;;;;;;;;;;11.50;99.90;11.80;97809.00;;;;344727;28;86066;-91
2022/03/31 00:08:19;;;;;;;;;;;11.40;99.90;11.80;97793.00;;;;347365;28;83419;-91
2022/03/31 00:08:31;;;;;;;;;;;11.40;99.90;11.80;97798.00;;;;348595;27;85651;-91
2022/03/31 00:08:43;;;;;;;;;;;11.40;99.90;11.90;97794.00;;;;348960;27;82556;-91
2022/03/31 00:08:55;;;;;;;;;;;11.40;99.90;11.90;97797.00;;;;347505;28;86413;-92
2022/03/31 00:09:07;;;;;;;;;;;11.40;99.90;11.90;97799.00;;;;348862;27;83433;-91
2022/03/31 00:09:19;;;;;;;;;;;11.50;99.90;11.90;97802.00;;;;347172;28;87607;-91
2022/03/31 00:09:31;;;;;;;;;;;11.40;99.90;11.90;97800.00;;;;347381;28;83473;-91
2022/03/31 00:09:43;;;;;;;;;;;11.50;99.90;12.00;97798.00;;;;347117;28;86560;-92
2022/03/31 00:09:54;;;;;;;;;;;11.50;99.90;12.10;97792.00;;;;348586;27;82626;-92
2022/03/31 00:10:06;;;;;;;;;;;11.50;99.90;12.10;97797.00;;;;344686;28;86363;-92
2022/03/31 00:10:20;;;;;;;;;;;11.50;99.90;12.10;97797.00;;;;347605;27;83457;-91
2022/03/31 00:10:39;;;;;;;;;;;11.50;99.90;12.10;97790.00;;;;348605;27;85235;-92
2022/03/31 00:10:52;;;;;;;;;;;11.60;99.90;12.00;97796.00;;;;347475;28;83448;-92
2022/03/31 00:11:04;;;;;;;;;;;11.60;99.90;12.00;97791.00;;;;347393;28;87841;-91
2022/03/31 00:11:18;;;;;;;;;;;11.60;99.90;12.00;97794.00;;;;345831;28;83242;-91
2022/03/31 00:11:29;;;;;;;;;;;11.60;99.90;12.00;97790.00;;;;347499;28;86532;-91
2022/03/31 00:11:41;;;;;;;;;;;11.50;99.90;12.00;97793.00;;;;347535;28;82460;-92
2022/03/31 00:11:53;;;;;;;;;;;11.50;99.90;11.90;97791.00;;;;344645;28;86171;-91
2022/03/31 00:12:05;;;;;;;;;;;11.50;99.90;11.90;97793.00;;;;344829;28;83378;-91
2022/03/31 00:12:17;;;;;;;;;;;11.60;99.90;12.00;97788.00;;;;346083;28;86468;-91
2022/03/31 00:12:29;;;;;;;;;;;11.60;99.90;11.90;97793.00;;;;347101;28;83589;-91
2022/03/31 00:12:41;;;;;;;;;;;11.60;99.90;12.00;97796.00;;;;344563;28;87522;-91
2022/03/31 00:12:53;;;;;;;;;;;11.50;99.90;11.90;97796.00;;;;346121;28;82609;-91
2022/03/31 00:13:08;;;;;;;;;;;11.60;99.90;11.80;97785.00;;;;347563;28;87144;-91
2022/03/31 00:13:25;;;;;;;;;;;11.50;99.90;11.70;97788.00;;;;347272;28;82633;-91
2022/03/31 00:13:37;;;;;;;;;;;11.50;99.90;11.70;97791.00;;;;347306;28;86208;-91
2022/03/31 00:13:49;;;;;;;;;;;11.50;99.90;11.70;97790.00;;;;347323;28;83247;-90
2022/03/31 00:14:00;;;;;;;;;;;11.50;99.90;11.80;97792.00;;;;347429;27;86118;-91
2022/03/31 00:14:12;;;;;;;;;;;11.50;99.90;11.80;97796.00;;;;347418;28;83401;-91
2022/03/31 00:14:26;;;;;;;;;;;11.50;99.90;11.90;97790.00;;;;346007;28;86139;-91
2022/03/31 00:14:38;;;;;;;;;;;11.50;99.90;11.90;97797.00;;;;347333;27;82588;-90
2022/03/31 00:14:50;;;;;;;;;;;11.50;99.90;12.00;97792.00;;;;344306;28;87222;-91
2022/03/31 00:15:02;;;;;;;;;;;11.50;99.90;12.10;97778.00;;;;344394;28;83399;-91
2022/03/31 00:15:14;;;;;;;;;;;11.60;99.90;12.10;97790.00;;;;345736;28;87797;-91
2022/03/31 00:15:26;;;;;;;;;;;11.60;99.90;12.20;97785.00;;;;345609;28;83656;-91
2022/03/31 00:15:38;;;;;;;;;;;11.60;99.90;12.10;97785.00;;;;345896;28;86084;-91
2022/03/31 00:15:51;;;;;;;;;;;11.60;99.90;12.00;97784.00;;;;347347;28;83406;-91
2022/03/31 00:16:04;;;;;;;;;;;11.60;99.90;12.00;97788.00;;;;346066;28;86540;-91
2022/03/31 00:16:16;;;;;;;;;;;11.60;99.90;12.00;97778.00;;;;344817;28;83233;-91
2022/03/31 00:16:28;;;;;;;;;;;11.60;99.90;12.00;97783.00;;;;347326;28;85769;-90
2022/03/31 00:16:39;;;;;;;;;;;11.60;99.90;12.10;97792.00;;;;344748;28;83504;-91
2022/03/31 00:16:52;;;;;;;;;;;11.60;99.90;12.00;97781.00;;;;347450;28;87568;-90
2022/03/31 00:17:03;;;;;;;;;;;11.60;99.90;12.00;97784.00;;;;346196;28;82439;-91
2022/03/31 00:17:15;;;;;;;;;;;11.60;99.90;12.00;97786.00;;;;345982;28;87828;-90
2022/03/31 00:17:27;;;;;;;;;;;11.60;99.90;12.00;97784.00;;;;347673;28;82512;-91
2022/03/31 00:17:39;;;;;;;;;;;11.60;99.90;11.90;97782.00;;;;344719;28;85728;-91
2022/03/31 00:17:51;;;;;;;;;;;11.60;99.90;12.10;97782.00;;;;345814;28;83410;-90
2022/03/31 00:18:04;;;;;;;;;;;11.60;99.90;12.10;97785.00;;;;344527;28;87453;-91
2022/03/31 00:18:16;;;;;;;;;;;11.60;99.90;12.00;97780.00;;;;343425;28;83483;-91
2022/03/31 00:18:29;;;;;;;;;;;11.60;99.90;12.10;97784.00;;;;345480;28;87995;-91
2022/03/31 00:18:41;;;;;;;;;;;11.60;99.90;12.00;97772.00;;;;346064;28;83375;-90
2022/03/31 00:18:53;;;;;;;;;;;11.60;99.90;12.00;97782.00;;;;347834;27;86827;-90
2022/03/31 00:19:05;;;;;;;;;;;11.60;99.90;11.90;97778.00;;;;347607;28;83338;-91
2022/03/31 00:19:16;;;;;;;;;;;11.60;99.90;11.90;97781.00;;;;347377;28;86973;-91
2022/03/31 00:19:29;;;;;;;;;;;11.60;99.90;12.00;97779.00;;;;347084;28;82681;-91
2022/03/31 00:19:41;;;;;;;;;;;11.60;99.90;12.00;97779.00;;;;345990;28;87512;-91
2022/03/31 00:19:53;;;;;;;;;;;11.60;99.90;11.90;97775.00;;;;345994;28;83456;-91
2022/03/31 00:20:07;;;;;;;;;;;11.60;99.90;11.80;97777.00;;;;346039;28;86928;-91
2022/03/31 00:20:19;;;;;;;;;;;11.60;99.90;11.80;97776.00;;;;343483;28;83342;-91
2022/03/31 00:20:31;;;;;;;;;;;11.60;99.90;11.90;97782.00;;;;345966;28;86025;-91
2022/03/31 00:20:43;;;;;;;;;;;11.60;99.90;12.00;97781.00;;;;347563;28;82531;-90
2022/03/31 00:20:54;;;;;;;;;;;11.60;99.90;11.90;97779.00;;;;346168;28;83917;-91
2022/03/31 00:21:06;;;;;;;;;;;11.60;99.90;11.90;97785.00;;;;346113;28;83462;-90
2022/03/31 00:21:18;;;;;;;;;;;11.60;99.90;11.90;97776.00;;;;347094;28;87658;-91
2022/03/31 00:21:30;;;;;;;;;;;11.60;99.90;11.90;97777.00;;;;347207;28;82392;-91
2022/03/31 00:21:42;;;;;;;;;;;11.60;99.90;11.90;97784.00;;;;348722;27;86602;-91
2022/03/31 00:21:53;;;;;;;;;;;11.60;99.90;11.90;97783.00;;;;347483;28;82502;-91
2022/03/31 00:22:05;;;;;;;;;;;11.60;99.90;11.90;97780.00;;;;348913;27;85047;-90
2022/03/31 00:22:17;;;;;;;;;;;11.60;99.90;11.90;97784.00;;;;347663;28;82529;-91
2022/03/31 00:22:29;;;;;;;;;;;11.60;99.90;11.90;97777.00;;;;346965;28;86773;-91
2022/03/31 00:22:41;;;;;;;;;;;11.60;99.90;11.80;97776.00;;;;347590;28;83404;-91
2022/03/31 00:22:53;;;;;;;;;;;11.60;99.90;11.70;97771.00;;;;346092;28;86278;-91
2022/03/31 00:23:06;;;;;;;;;;;11.60;99.90;11.70;97778.00;;;;347580;28;82439;-91
2022/03/31 00:23:17;;;;;;;;;;;11.50;99.90;11.80;97771.00;;;;348806;27;87176;-91
2022/03/31 00:23:29;;;;;;;;;;;11.50;99.90;11.80;97772.00;;;;346097;28;82558;-91
2022/03/31 00:23:41;;;;;;;;;;;11.50;99.90;11.80;97774.00;;;;348790;27;87060;-91
2022/03/31 00:23:53;;;;;;;;;;;11.50;99.90;11.70;97771.00;;;;346130;28;82448;-91
2022/03/31 00:24:07;;;;;;;;;;;11.50;99.90;11.80;97781.00;;;;348555;27;86355;-91
2022/03/31 00:24:19;;;;;;;;;;;11.50;99.90;11.80;97780.00;;;;348635;27;82454;-91
2022/03/31 00:24:31;;;;;;;;;;;11.50;99.90;11.80;97784.00;;;;346820;28;86441;-91
2022/03/31 00:24:43;;;;;;;;;;;11.50;99.90;11.80;97779.00;;;;346005;28;83516;-91
2022/03/31 00:24:54;;;;;;;;;;;11.50;99.90;11.80;97776.00;;;;346134;28;84617;-91
2022/03/31 00:25:07;;;;;;;;;;;11.50;99.90;11.90;97774.00;;;;346180;28;82690;-91
2022/03/31 00:25:19;;;;;;;;;;;11.50;99.90;11.80;97781.00;;;;348743;27;86556;-91
2022/03/31 00:25:31;;;;;;;;;;;11.50;99.90;11.90;97775.00;;;;347472;27;83325;-91
2022/03/31 00:25:43;;;;;;;;;;;11.50;99.90;11.80;97777.00;;;;347438;28;87431;-91
2022/03/31 00:25:55;;;;;;;;;;;11.50;99.90;11.80;97776.00;;;;346140;28;82415;-91
2022/03/31 00:26:08;;;;;;;;;;;11.50;99.90;11.90;97777.00;;;;345957;28;86803;-91
2022/03/31 00:26:20;;;;;;;;;;;11.50;99.90;11.90;97777.00;;;;347562;28;82494;-92
2022/03/31 00:26:32;;;;;;;;;;;11.50;99.90;11.90;97779.00;;;;348736;27;86337;-90
2022/03/31 00:26:44;;;;;;;;;;;11.50;99.90;11.80;97769.00;;;;346132;28;83387;-91
2022/03/31 00:26:55;;;;;;;;;;;11.50;99.90;11.80;97772.00;;;;344677;28;87185;-91
2022/03/31 00:27:08;;;;;;;;;;;11.50;99.90;11.90;97769.00;;;;344676;28;82445;-91
2022/03/31 00:27:20;;;;;;;;;;;11.50;99.90;12.00;97774.00;;;;345784;28;87433;-91
2022/03/31 00:27:31;;;;;;;;;;;11.50;99.90;12.00;97775.00;;;;345796;28;83488;-91
2022/03/31 00:27:43;;;;;;;;;;;11.50;99.90;12.00;97770.00;;;;343321;28;87161;-92
2022/03/31 00:27:56;;;;;;;;;;;11.50;99.90;12.00;97776.00;;;;346572;28;82681;-91
2022/03/31 00:28:08;;;;;;;;;;;11.60;99.90;12.10;97770.00;;;;344577;28;86285;-91
2022/03/31 00:28:21;;;;;;;;;;;11.60;99.90;12.10;97768.00;;;;346151;28;83402;-91
2022/03/31 00:28:33;;;;;;;;;;;11.60;99.90;12.10;97766.00;;;;344655;28;86179;-91
2022/03/31 00:28:45;;;;;;;;;;;11.60;99.90;12.00;97769.00;;;;347487;28;83442;-91
2022/03/31 00:28:57;;;;;;;;;;;11.60;99.90;12.10;97771.00;;;;346037;28;86520;-91
2022/03/31 00:29:09;;;;;;;;;;;11.60;99.90;12.10;97771.00;;;;346115;28;82516;-91
2022/03/31 00:29:22;;;;;;;;;;;11.60;99.90;12.20;97768.00;;;;347467;28;86251;-91
2022/03/31 00:29:34;;;;;;;;;;;11.60;99.90;12.20;97776.00;;;;345947;28;82602;-91
2022/03/31 00:29:46;;;;;;;;;;;11.60;99.90;12.20;97770.00;;;;346063;28;86146;-91
2022/03/31 00:29:57;;;;;;;;;;;11.60;99.90;12.20;97778.00;;;;346070;28;83463;-92
2022/03/31 00:30:12;;;;;;;;;;;11.60;99.90;12.20;97760.00;;;;345869;28;87227;-91
2022/03/31 00:30:24;;;;;;;;;;;11.70;99.90;12.20;97770.00;;;;345411;28;83610;-90
2022/03/31 00:30:36;;;;;;;;;;;11.70;99.90;12.20;97769.00;;;;347327;28;87600;-90
2022/03/31 00:30:48;;;;;;;;;;;11.70;99.90;12.20;97767.00;;;;346268;28;82404;-91
2022/03/31 00:31:00;;;;;;;;;;;11.70;99.90;12.20;97767.00;;;;347533;28;86534;-91
2022/03/31 00:31:12;;;;;;;;;;;11.70;99.90;12.30;97769.00;;;;348810;27;83385;-91
2022/03/31 00:31:24;;;;;;;;;;;11.70;99.90;12.30;97767.00;;;;345961;28;87491;-91
2022/03/31 00:31:36;;;;;;;;;;;11.70;99.90;12.30;97770.00;;;;346203;28;82347;-91
2022/03/31 00:31:48;;;;;;;;;;;11.70;99.90;12.30;97770.00;;;;344642;28;87287;-91
2022/03/31 00:32:00;;;;;;;;;;;11.70;99.90;12.20;97767.00;;;;346215;28;82462;-91
2022/03/31 00:32:13;;;;;;;;;;;11.70;99.90;12.30;97772.00;;;;348759;27;86162;-91
2022/03/31 00:32:25;;;;;;;;;;;11.70;99.90;12.20;97768.00;;;;346176;28;82486;-91
2022/03/31 00:32:37;;;;;;;;;;;11.70;99.90;12.20;97766.00;;;;344626;28;87071;-91
2022/03/31 00:32:48;;;;;;;;;;;11.80;99.90;12.20;97767.00;;;;346128;28;83292;-91
2022/03/31 00:33:00;;;;;;;;;;;11.70;99.90;12.10;97761.00;;;;348631;27;86446;-91
2022/03/31 00:33:12;;;;;;;;;;;11.70;99.90;12.20;97767.00;;;;344383;28;83638;-91
2022/03/31 00:33:24;;;;;;;;;;;11.70;99.90;12.20;97760.00;;;;348202;27;86537;-91
2022/03/31 00:33:36;;;;;;;;;;;11.70;99.90;12.20;97755.00;;;;346373;28;83373;-91
2022/03/31 00:33:47;;;;;;;;;;;11.70;99.90;12.30;97771.00;;;;348267;27;86812;-91
2022/03/31 00:33:59;;;;;;;;;;;11.80;99.90;12.30;97762.00;;;;346189;28;82419;-91
2022/03/31 00:34:11;;;;;;;;;;;11.80;99.90;12.20;97766.00;;;;344589;28;86195;-91
2022/03/31 00:34:23;;;;;;;;;;;11.80;99.90;12.20;97754.00;;;;349158;27;83477;-91
2022/03/31 00:34:35;;;;;;;;;;;11.80;99.90;12.20;97766.00;;;;347198;28;87233;-91
2022/03/31 00:34:47;;;;;;;;;;;11.80;99.90;12.30;97761.00;;;;346162;28;83340;-91
2022/03/31 00:34:59;;;;;;;;;;;11.80;99.90;12.30;97771.00;;;;346021;28;87274;-91
2022/03/31 00:35:12;;;;;;;;;;;11.80;99.90;12.30;97769.00;;;;348800;27;82483;-91
2022/03/31 00:35:24;;;;;;;;;;;11.80;99.90;12.30;97768.00;;;;347365;28;87634;-91
2022/03/31 00:35:36;;;;;;;;;;;11.80;99.90;12.30;97759.00;;;;347321;28;82527;-91
2022/03/31 00:35:48;;;;;;;;;;;11.80;99.90;12.20;97762.00;;;;348724;27;87452;-91
2022/03/31 00:35:59;;;;;;;;;;;11.80;99.90;12.30;97761.00;;;;344778;28;83441;-91
2022/03/31 00:36:12;;;;;;;;;;;11.80;99.90;12.10;97766.00;;;;347317;28;87382;-91
2022/03/31 00:36:24;;;;;;;;;;;11.80;99.90;12.00;97751.00;;;;347056;28;83715;-91
2022/03/31 00:36:36;;;;;;;;;;;11.80;99.90;12.10;97767.00;;;;345838;28;87588;-91
2022/03/31 00:36:48;;;;;;;;;;;11.80;99.90;12.00;97762.00;;;;346126;28;82548;-91
2022/03/31 00:36:59;;;;;;;;;;;11.80;99.90;12.00;97758.00;;;;344395;28;87460;-91
2022/03/31 00:37:11;;;;;;;;;;;11.80;99.90;12.00;97761.00;;;;345981;28;83636;-91
2022/03/31 00:37:23;;;;;;;;;;;11.80;99.90;12.00;97760.00;;;;347576;27;87813;-91
2022/03/31 00:37:35;;;;;;;;;;;11.80;99.90;12.10;97762.00;;;;347496;28;83468;-92
2022/03/31 00:37:47;;;;;;;;;;;11.70;99.90;12.10;97752.00;;;;345946;28;86368;-91
2022/03/31 00:37:58;;;;;;;;;;;11.70;99.90;12.10;97755.00;;;;350282;27;83402;-92
2022/03/31 00:38:11;;;;;;;;;;;11.70;99.90;12.20;97749.00;;;;347372;28;86323;-91
2022/03/31 00:38:23;;;;;;;;;;;11.80;99.90;12.20;97758.00;;;;347485;28;83344;-91
2022/03/31 00:38:35;;;;;;;;;;;11.80;99.90;12.10;97755.00;;;;348705;27;86363;-91
2022/03/31 00:39:29;;;;;;;;;;;11.80;99.90;12.10;97759.00;;;;345902;28;87763;-92
2022/03/31 00:39:42;;;;;;;;;;;11.80;99.90;12.00;97749.00;;;;348099;27;82540;-91
2022/03/31 00:39:55;;;;;;;;;;;11.70;99.90;12.00;97756.00;;;;346383;28;87280;-91
2022/03/31 00:40:08;;;;;;;;;;;11.70;99.90;11.90;97758.00;;;;347551;28;83058;-91
2022/03/31 00:40:20;;;;;;;;;;;11.70;99.90;11.90;97752.00;;;;346000;28;87290;-91
2022/03/31 00:40:33;;;;;;;;;;;11.70;99.90;12.00;97752.00;;;;344555;28;82460;-91
2022/03/31 00:40:45;;;;;;;;;;;11.70;99.90;12.00;97753.00;;;;345969;28;86238;-91
2022/03/31 00:40:57;;;;;;;;;;;11.70;99.90;12.10;97759.00;;;;347481;28;83534;-92
2022/03/31 00:41:09;;;;;;;;;;;11.70;99.90;11.90;97754.00;;;;347305;28;86688;-91
2022/03/31 00:41:22;;;;;;;;;;;11.70;99.90;11.90;97751.00;;;;346051;28;82574;-91
2022/03/31 00:41:38;;;;;;;;;;;11.70;99.90;11.80;97756.00;;;;347935;28;80303;-91
2022/03/31 00:41:50;;;;;;;;;;;11.70;99.90;11.90;97748.00;;;;346143;28;82536;-91
2022/03/31 00:42:05;;;;;;;;;;;11.70;99.90;12.00;97743.00;;;;346142;28;86555;-91
2022/03/31 00:42:16;;;;;;;;;;;11.80;99.90;12.10;97744.00;;;;344811;28;83383;-91
2022/03/31 00:42:28;;;;;;;;;;;11.70;99.90;12.10;97756.00;;;;346863;28;87892;-91
2022/03/31 00:42:45;;;;;;;;;;;11.70;99.90;12.20;97754.00;;;;347789;27;82598;-91
2022/03/31 00:42:57;;;;;;;;;;;11.70;99.90;12.10;97748.00;;;;346980;28;86056;-91
2022/03/31 00:43:09;;;;;;;;;;;11.70;99.90;12.00;97748.00;;;;347460;28;83275;-91
2022/03/31 00:43:21;;;;;;;;;;;11.70;99.90;11.90;97749.00;;;;346018;28;83914;-91
2022/03/31 00:43:33;;;;;;;;;;;11.70;99.90;11.90;97754.00;;;;348554;27;83201;-91
2022/03/31 00:43:45;;;;;;;;;;;11.70;99.90;11.90;97748.00;;;;349889;27;86399;-91
2022/03/31 00:43:56;;;;;;;;;;;11.70;99.90;11.90;97744.00;;;;347458;28;83411;-91
2022/03/31 00:44:08;;;;;;;;;;;11.70;99.90;11.90;97747.00;;;;346031;28;87555;-91
2022/03/31 00:44:20;;;;;;;;;;;11.70;99.90;11.90;97742.00;;;;348920;27;83437;-91
2022/03/31 00:44:32;;;;;;;;;;;11.70;99.90;11.90;97746.00;;;;348798;27;86303;-91
2022/03/31 00:44:44;;;;;;;;;;;11.60;99.90;11.90;97745.00;;;;347507;28;82527;-91
2022/03/31 00:44:55;;;;;;;;;;;11.70;99.90;11.90;97756.00;;;;345976;28;86349;-92
2022/03/31 00:45:23;;;;;;;;;;;11.60;99.90;11.90;97743.00;;;;347420;28;83434;-91
2022/03/31 00:45:46;;;;;;;;;;;11.70;99.90;11.90;97749.00;;;;343421;28;87382;-91
2022/03/31 00:45:59;;;;;;;;;;;11.60;99.90;11.90;97749.00;;;;346038;28;82586;-92
2022/03/31 00:46:11;;;;;;;;;;;11.60;99.90;11.90;97744.00;;;;347128;28;85280;-91
2022/03/31 00:46:23;;;;;;;;;;;11.60;99.90;11.90;97738.00;;;;346303;28;83494;-91
2022/03/31 00:46:35;;;;;;;;;;;11.60;99.90;11.90;97741.00;;;;347390;28;87562;-91
2022/03/31 00:46:49;;;;;;;;;;;11.60;99.90;11.80;97743.00;;;;344867;28;83450;-91
2022/03/31 00:47:01;;;;;;;;;;;11.60;99.90;11.80;97740.00;;;;348573;27;85478;-92
2022/03/31 00:47:13;;;;;;;;;;;11.60;99.90;11.80;97738.00;;;;348630;27;83518;-91
2022/03/31 00:47:25;;;;;;;;;;;11.60;99.90;11.70;97743.00;;;;347272;28;87715;-91
2022/03/31 00:47:37;;;;;;;;;;;11.60;99.90;11.70;97743.00;;;;346090;28;83383;-91
2022/03/31 00:47:49;;;;;;;;;;;11.60;99.90;11.80;97736.00;;;;346067;28;83515;-91
2022/03/31 00:48:01;;;;;;;;;;;11.60;99.90;11.80;97742.00;;;;346092;28;83580;-91
2022/03/31 00:48:16;;;;;;;;;;;11.60;99.90;11.80;97744.00;;;;345974;28;86455;-92
2022/03/31 00:48:28;;;;;;;;;;;11.60;99.90;11.80;97739.00;;;;345634;28;85800;-91
2022/03/31 00:48:40;;;;;;;;;;;11.60;99.90;11.80;97732.00;;;;345927;28;86663;-91
2022/03/31 00:48:52;;;;;;;;;;;11.60;99.90;11.70;97739.00;;;;344682;28;82535;-92
2022/03/31 00:49:03;;;;;;;;;;;11.60;99.90;11.70;97740.00;;;;346023;28;87336;-91
2022/03/31 00:49:16;;;;;;;;;;;11.60;99.90;11.70;97742.00;;;;344630;28;83464;-91
2022/03/31 00:49:29;;;;;;;;;;;11.50;99.90;11.70;97741.00;;;;346862;28;86422;-91
2022/03/31 00:49:41;;;;;;;;;;;11.50;99.90;11.80;97731.00;;;;345968;28;83442;-91
2022/03/31 00:49:52;;;;;;;;;;;11.60;99.90;11.90;97734.00;;;;347223;28;86402;-91
2022/03/31 00:50:04;;;;;;;;;;;11.60;99.90;11.90;97735.00;;;;347451;28;82688;-91
2022/03/31 00:50:17;;;;;;;;;;;11.50;99.90;12.00;97733.00;;;;345734;28;85543;-91
2022/03/31 00:50:30;;;;;;;;;;;11.50;99.90;12.00;97740.00;;;;347465;28;83426;-91
2022/03/31 00:50:42;;;;;;;;;;;11.60;99.90;12.00;97740.00;;;;347419;28;87067;-91
2022/03/31 00:50:54;;;;;;;;;;;11.60;99.90;11.90;97733.00;;;;346165;28;82516;-91
2022/03/31 00:51:06;;;;;;;;;;;11.60;99.90;11.90;97743.00;;;;348524;27;86460;-90
2022/03/31 00:51:18;;;;;;;;;;;11.60;99.90;11.90;97744.00;;;;350163;27;83469;-92
2022/03/31 00:51:29;;;;;;;;;;;11.60;99.90;11.90;97736.00;;;;346455;28;86241;-91
2022/03/31 00:51:42;;;;;;;;;;;11.60;99.90;11.80;97730.00;;;;348809;27;83467;-91
2022/03/31 00:51:54;;;;;;;;;;;11.50;99.90;11.90;97735.00;;;;347304;28;85062;-90
2022/03/31 00:52:06;;;;;;;;;;;11.50;99.90;12.00;97740.00;;;;346120;28;82388;-91
2022/03/31 00:52:18;;;;;;;;;;;11.60;99.90;12.10;97740.00;;;;345956;28;86745;-91
2022/03/31 00:52:30;;;;;;;;;;;11.60;99.90;12.10;97741.00;;;;345911;28;83484;-91
2022/03/31 00:52:42;;;;;;;;;;;11.60;99.90;12.10;97736.00;;;;345797;28;87082;-91
2022/03/31 00:52:54;;;;;;;;;;;11.60;99.90;12.10;97737.00;;;;346074;28;83327;-91
2022/03/31 00:53:26;;;;;;;;;;;11.60;99.90;11.90;97738.00;;;;346002;28;87829;-91
2022/03/31 00:53:40;;;;;;;;;;;11.60;99.90;11.80;97734.00;;;;346099;28;83364;-91
2022/03/31 00:53:52;;;;;;;;;;;11.50;99.90;11.80;97736.00;;;;345715;28;85593;-91
2022/03/31 00:54:05;;;;;;;;;;;11.50;99.90;11.70;97734.00;;;;346011;28;83512;-91
2022/03/31 00:54:22;;;;;;;;;;;11.50;99.90;11.80;97735.00;;;;345833;28;86461;-91
2022/03/31 00:54:34;;;;;;;;;;;11.50;99.90;11.80;97729.00;;;;348468;27;83486;-91
2022/03/31 00:54:46;;;;;;;;;;;11.50;99.90;11.80;97743.00;;;;348765;27;86357;-91
2022/03/31 00:54:58;;;;;;;;;;;11.50;99.90;11.90;97732.00;;;;344635;28;83482;-92
2022/03/31 00:55:11;;;;;;;;;;;11.50;99.90;11.90;97734.00;;;;348461;27;86510;-91
2022/03/31 00:55:23;;;;;;;;;;;11.50;99.90;11.80;97735.00;;;;346228;28;82544;-91
2022/03/31 00:55:35;;;;;;;;;;;11.50;99.90;11.80;97739.00;;;;347387;28;87052;-91
2022/03/31 00:55:46;;;;;;;;;;;11.50;99.90;11.80;97736.00;;;;345714;28;83395;-91
2022/03/31 00:55:59;;;;;;;;;;;11.50;99.90;11.90;97739.00;;;;344427;28;86492;-92
2022/03/31 00:56:11;;;;;;;;;;;11.50;99.90;11.90;97738.00;;;;345958;28;83497;-91
2022/03/31 00:56:24;;;;;;;;;;;11.50;99.90;11.80;97740.00;;;;346019;28;86088;-91
2022/03/31 00:56:35;;;;;;;;;;;11.50;99.90;11.80;97728.00;;;;347443;28;83468;-91
2022/03/31 00:56:49;;;;;;;;;;;11.50;99.90;11.80;97734.00;;;;344669;28;86259;-91
2022/03/31 00:57:02;;;;;;;;;;;11.50;99.90;11.80;97725.00;;;;344741;28;83379;-91
2022/03/31 00:57:14;;;;;;;;;;;11.50;99.90;11.80;97732.00;;;;347273;28;86150;-91
2022/03/31 00:57:26;;;;;;;;;;;11.50;99.90;11.90;97736.00;;;;345574;28;83492;-91
2022/03/31 00:57:38;;;;;;;;;;;11.50;99.90;11.90;97731.00;;;;347296;28;87121;-91
2022/03/31 00:57:55;;;;;;;;;;;11.50;99.90;11.90;97732.00;;;;344577;28;83395;-91
2022/03/31 00:58:07;;;;;;;;;;;11.50;99.90;11.90;97736.00;;;;347349;28;87381;-91
2022/03/31 00:58:19;;;;;;;;;;;11.50;99.90;11.90;97737.00;;;;347530;28;82395;-92
2022/03/31 00:58:31;;;;;;;;;;;11.50;99.90;12.00;97737.00;;;;347369;28;86858;-91
2022/03/31 00:58:43;;;;;;;;;;;11.50;99.90;11.90;97736.00;;;;346229;28;83297;-91
2022/03/31 00:58:55;;;;;;;;;;;11.50;99.90;11.80;97729.00;;;;347432;28;86299;-92
2022/03/31 00:59:07;;;;;;;;;;;11.50;99.90;11.80;97729.00;;;;347493;28;82519;-92
2022/03/31 00:59:18;;;;;;;;;;;11.50;99.90;11.80;97735.00;;;;344634;28;86195;-92
2022/03/31 00:59:30;;;;;;;;;;;11.50;99.90;11.80;97729.00;;;;344508;28;83424;-91
2022/03/31 00:59:42;;;;;;;;;;;11.50;99.90;11.80;97731.00;;;;347464;28;87312;-91
2022/03/31 00:59:55;;;;;;;;;;;11.50;99.90;11.90;97729.00;;;;347372;28;82588;-91
2022/03/31 01:00:08;;;;;;;;;;;11.50;99.90;12.00;97733.00;;;;344598;28;87911;-92
2022/03/31 01:00:21;;;;;;;;;;;11.50;99.90;12.10;97738.00;;;;346219;28;83591;-91
2022/03/31 01:00:32;;;;;;;;;;;11.50;99.90;12.10;97732.00;;;;345792;28;86333;-91
2022/03/31 01:00:44;;;;;;;;;;;11.50;99.90;12.10;97733.00;;;;346289;28;82447;-91
2022/03/31 01:00:56;;;;;;;;;;;11.60;99.90;12.10;97730.00;;;;347267;28;87447;-91
2022/03/31 01:01:08;;;;;;;;;;;11.60;99.90;12.20;97727.00;;;;348807;27;83240;-91
2022/03/31 01:01:20;;;;;;;;;;;11.60;99.90;12.20;97730.00;;;;350209;27;86889;-92
2022/03/31 01:01:33;;;;;;;;;;;11.60;99.90;12.10;97730.00;;;;347471;28;83414;-91
2022/03/31 01:01:45;;;;;;;;;;;11.60;99.90;12.00;97728.00;;;;347441;28;86695;-91
2022/03/31 01:01:59;;;;;;;;;;;11.60;99.90;11.90;97728.00;;;;345875;28;82494;-91
2022/03/31 01:02:12;;;;;;;;;;;11.60;99.90;11.90;97732.00;;;;345914;28;87056;-91
2022/03/31 01:02:30;;;;;;;;;;;11.60;99.90;11.90;97734.00;;;;347501;28;83453;-91